sensor_id;sensor_type;location;lat;lon;timestamp;pressure;altitude;pressure_sealevel;temperature;humidity
19672;BME280;9983;51.114;13.788;2022-12-24T00:03:11;98064.03;;;11.37;100.00
19672;BME280;9983;51.114;13.788;2022-12-24T00:08:12;98061.09;;;11.01;100.00
19672;BME280;9983;51.114;13.788;2022-12-24T00:13:12;98068.06;;;11.15;100.00
19672;BME280;9983;51.114;13.788;2022-12-24T00:18:12;98088.31;;;11.11;100.00
19672;BME280;9983;51.114;13.788;2022-12-24T00:23:13;98100.34;;;10.76;100.00
19672;BME280;9983;51.114;13.788;2022-12-24T00:28:14;98084.22;;;10.95;100.00
19672;BME280;9983;51.114;13.788;2022-12-24T00:33:15;98096.81;;;10.82;100.00
19672;BME280;9983;51.114;13.788;2022-12-24T00:38:15;98094.59;;;10.65;100.00
19672;BME280;9983;51.114;13.788;2022-12-24T00:43:16;98088.69;;;11.21;100.00
19672;BME280;9983;51.114;13.788;2022-12-24T00:48:16;98093.25;;;11.08;100.00
19672;BME280;9983;51.114;13.788;2022-12-24T00:53:17;98117.25;;;10.83;100.00
19672;BME280;9983;51.114;13.788;2022-12-24T00:58:17;98124.59;;;11.20;100.00
19672;BME280;9983;51.114;13.788;2022-12-24T01:03:17;98135.81;;;10.84;100.00
19672;BME280;9983;51.114;13.788;2022-12-24T01:08:18;98148.97;;;10.99;100.00
19672;BME280;9983;51.114;13.788;2022-12-24T01:13:18;98145.47;;;10.92;100.00
19672;BME280;9983;51.114;13.788;2022-12-24T01:18:18;98150.22;;;10.90;100.00
19672;BME280;9983;51.114;13.788;2022-12-24T01:23:18;98162.59;;;11.04;100.00
19672;BME280;9983;51.114;13.788;2022-12-24T01:28:19;98179.06;;;11.08;100.00
19672;BME280;9983;51.114;13.788;2022-12-24T01:33:20;98160.94;;;10.96;100.00
19672;BME280;9983;51.114;13.788;2022-12-24T01:38:20;98168.41;;;10.75;100.00
19672;BME280;9983;51.114;13.788;2022-12-24T01:43:21;98183.66;;;10.68;100.00
19672;BME280;9983;51.114;13.788;2022-12-24T01:48:39;98184.50;;;10.68;100.00
19672;BME280;9983;51.114;13.788;2022-12-24T01:53:41;98195.19;;;10.75;100.00
19672;BME280;9983;51.114;13.788;2022-12-24T01:58:45;98203.84;;;11.03;100.00
19672;BME280;9983;51.114;13.788;2022-12-24T02:03:47;98207.56;;;10.56;100.00
19672;BME280;9983;51.114;13.788;2022-12-24T02:08:47;98204.28;;;10.87;100.00
19672;BME280;9983;51.114;13.788;2022-12-24T02:13:50;98209.84;;;10.79;100.00
19672;BME280;9983;51.114;13.788;2022-12-24T02:24:41;98222.63;;;10.90;100.00
19672;BME280;9983;51.114;13.788;2022-12-24T02:30:42;98236.00;;;10.90;100.00
19672;BME280;9983;51.114;13.788;2022-12-24T02:40:46;98241.16;;;10.98;100.00
19672;BME280;9983;51.114;13.788;2022-12-24T02:45:58;98272.72;;;10.76;100.00
19672;BME280;9983;51.114;13.788;2022-12-24T02:51:03;98268.41;;;11.08;100.00
19672;BME280;9983;51.114;13.788;2022-12-24T03:12:05;98288.19;;;11.07;100.00
19672;BME280;9983;51.114;13.788;2022-12-24T03:17:08;98303.28;;;10.95;100.00
19672;BME280;9983;51.114;13.788;2022-12-24T03:22:10;98304.06;;;10.89;100.00
19672;BME280;9983;51.114;13.788;2022-12-24T03:27:12;98309.44;;;10.62;100.00
19672;BME280;9983;51.114;13.788;2022-12-24T03:32:13;98305.72;;;10.70;100.00
19672;BME280;9983;51.114;13.788;2022-12-24T03:37:13;98315.19;;;10.59;100.00
19672;BME280;9983;51.114;13.788;2022-12-24T03:42:13;98320.97;;;10.76;100.00
19672;BME280;9983;51.114;13.788;2022-12-24T03:47:13;98316.88;;;10.87;100.00
19672;BME280;9983;51.114;13.788;2022-12-24T03:52:14;98320.16;;;10.89;100.00
19672;BME280;9983;51.114;13.788;2022-12-24T03:57:14;98319.75;;;11.05;100.00
19672;BME280;9983;51.114;13.788;2022-12-24T04:02:14;98321.41;;;11.06;100.00
19672;BME280;9983;51.114;13.788;2022-12-24T04:07:14;98334.56;;;10.61;100.00
19672;BME280;9983;51.114;13.788;2022-12-24T04:12:15;98348.22;;;10.93;100.00
19672;BME280;9983;51.114;13.788;2022-12-24T04:17:15;98350.28;;;10.78;100.00
19672;BME280;9983;51.114;13.788;2022-12-24T04:22:16;98351.09;;;10.85;100.00
19672;BME280;9983;51.114;13.788;2022-12-24T04:27:17;98353.53;;;10.67;100.00
19672;BME280;9983;51.114;13.788;2022-12-24T04:32:17;98367.38;;;10.77;100.00
19672;BME280;9983;51.114;13.788;2022-12-24T04:37:17;98375.00;;;10.80;100.00
19672;BME280;9983;51.114;13.788;2022-12-24T04:42:17;98382.91;;;11.08;100.00
19672;BME280;9983;51.114;13.788;2022-12-24T04:47:18;98381.25;;;11.07;100.00
19672;BME280;9983;51.114;13.788;2022-12-24T04:52:18;98396.31;;;11.14;100.00
19672;BME280;9983;51.114;13.788;2022-12-24T04:57:18;98420.88;;;11.18;100.00
19672;BME280;9983;51.114;13.788;2022-12-24T05:02:18;98418.00;;;11.13;100.00
19672;BME280;9983;51.114;13.788;2022-12-24T05:07:19;98433.66;;;11.02;100.00
19672;BME280;9983;51.114;13.788;2022-12-24T05:12:19;98436.97;;;11.11;100.00
19672;BME280;9983;51.114;13.788;2022-12-24T05:17:19;98449.72;;;10.96;100.00
19672;BME280;9983;51.114;13.788;2022-12-24T05:22:19;98459.94;;;10.73;100.00
19672;BME280;9983;51.114;13.788;2022-12-24T05:27:38;98469.78;;;10.59;100.00
19672;BME280;9983;51.114;13.788;2022-12-24T05:32:38;98474.78;;;10.69;100.00
19672;BME280;9983;51.114;13.788;2022-12-24T05:37:39;98466.84;;;10.47;100.00
19672;BME280;9983;51.114;13.788;2022-12-24T05:42:39;98473.44;;;10.45;100.00
19672;BME280;9983;51.114;13.788;2022-12-24T05:47:39;98481.50;;;10.51;100.00
19672;BME280;9983;51.114;13.788;2022-12-24T05:52:39;98472.94;;;10.28;100.00
19672;BME280;9983;51.114;13.788;2022-12-24T05:57:39;98492.88;;;10.53;100.00
19672;BME280;9983;51.114;13.788;2022-12-24T06:02:40;98497.34;;;10.46;100.00
19672;BME280;9983;51.114;13.788;2022-12-24T06:07:40;98499.09;;;10.60;100.00
19672;BME280;9983;51.114;13.788;2022-12-24T06:12:41;98514.00;;;10.76;100.00
19672;BME280;9983;51.114;13.788;2022-12-24T06:17:41;98529.63;;;10.73;100.00
19672;BME280;9983;51.114;13.788;2022-12-24T06:22:41;98543.47;;;10.70;100.00
19672;BME280;9983;51.114;13.788;2022-12-24T06:27:41;98547.31;;;10.60;100.00
19672;BME280;9983;51.114;13.788;2022-12-24T06:32:41;98555.91;;;10.49;100.00
19672;BME280;9983;51.114;13.788;2022-12-24T06:37:42;98581.03;;;10.48;100.00
19672;BME280;9983;51.114;13.788;2022-12-24T06:42:42;98575.63;;;10.70;100.00
19672;BME280;9983;51.114;13.788;2022-12-24T06:47:42;98562.75;;;10.58;100.00
19672;BME280;9983;51.114;13.788;2022-12-24T06:52:42;98583.56;;;10.56;100.00
19672;BME280;9983;51.114;13.788;2022-12-24T06:57:43;98605.03;;;10.63;100.00
19672;BME280;9983;51.114;13.788;2022-12-24T07:02:43;98604.78;;;10.86;100.00
19672;BME280;9983;51.114;13.788;2022-12-24T07:07:44;98619.59;;;10.82;100.00
19672;BME280;9983;51.114;13.788;2022-12-24T07:12:45;98627.66;;;10.82;100.00
19672;BME280;9983;51.114;13.788;2022-12-24T07:17:45;98636.56;;;10.89;100.00
19672;BME280;9983;51.114;13.788;2022-12-24T07:22:45;98637.84;;;10.93;100.00
19672;BME280;9983;51.114;13.788;2022-12-24T07:27:45;98664.69;;;10.99;100.00
19672;BME280;9983;51.114;13.788;2022-12-24T07:32:45;98669.66;;;11.02;100.00
19672;BME280;9983;51.114;13.788;2022-12-24T07:37:46;98666.69;;;10.91;100.00
19672;BME280;9983;51.114;13.788;2022-12-24T07:42:46;98671.94;;;10.71;100.00
19672;BME280;9983;51.114;13.788;2022-12-24T07:47:46;98696.63;;;10.94;100.00
19672;BME280;9983;51.114;13.788;2022-12-24T07:52:46;98700.34;;;10.65;100.00
19672;BME280;9983;51.114;13.788;2022-12-24T07:57:47;98687.03;;;10.79;100.00
19672;BME280;9983;51.114;13.788;2022-12-24T08:02:48;98699.66;;;10.85;100.00
19672;BME280;9983;51.114;13.788;2022-12-24T08:07:48;98702.56;;;10.90;100.00
19672;BME280;9983;51.114;13.788;2022-12-24T08:12:48;98712.13;;;10.99;100.00
19672;BME280;9983;51.114;13.788;2022-12-24T08:17:49;98715.91;;;11.05;100.00
19672;BME280;9983;51.114;13.788;2022-12-24T08:22:49;98729.69;;;10.74;100.00
19672;BME280;9983;51.114;13.788;2022-12-24T08:27:49;98738.19;;;10.56;100.00
19672;BME280;9983;51.114;13.788;2022-12-24T08:32:49;98755.50;;;10.53;100.00
19672;BME280;9983;51.114;13.788;2022-12-24T08:37:50;98760.06;;;10.59;100.00
19672;BME280;9983;51.114;13.788;2022-12-24T08:42:50;98770.28;;;10.49;100.00
19672;BME280;9983;51.114;13.788;2022-12-24T08:47:50;98785.47;;;10.85;100.00
19672;BME280;9983;51.114;13.788;2022-12-24T08:52:50;98795.94;;;10.58;100.00
19672;BME280;9983;51.114;13.788;2022-12-24T08:57:51;98805.50;;;10.89;100.00
19672;BME280;9983;51.114;13.788;2022-12-24T09:02:51;98806.63;;;11.01;100.00
19672;BME280;9983;51.114;13.788;2022-12-24T09:07:51;98815.19;;;10.90;100.00
19672;BME280;9983;51.114;13.788;2022-12-24T09:12:52;98838.28;;;10.48;100.00
19672;BME280;9983;51.114;13.788;2022-12-24T09:17:52;98828.75;;;10.82;100.00
19672;BME280;9983;51.114;13.788;2022-12-24T09:22:52;98828.50;;;10.77;100.00
19672;BME280;9983;51.114;13.788;2022-12-24T09:27:52;98851.66;;;11.06;100.00
19672;BME280;9983;51.114;13.788;2022-12-24T09:32:52;98853.00;;;10.95;100.00
19672;BME280;9983;51.114;13.788;2022-12-24T09:37:53;98861.16;;;11.08;100.00
19672;BME280;9983;51.114;13.788;2022-12-24T09:43:05;98867.81;;;11.12;100.00
19672;BME280;9983;51.114;13.788;2022-12-24T09:48:14;98884.03;;;10.83;100.00
19672;BME280;9983;51.114;13.788;2022-12-24T09:58:56;98893.66;;;11.41;100.00
19672;BME280;9983;51.114;13.788;2022-12-24T10:04:09;98900.91;;;11.47;100.00
19672;BME280;9983;51.114;13.788;2022-12-24T10:09:45;98896.06;;;11.64;100.00
19672;BME280;9983;51.114;13.788;2022-12-24T10:15:09;98904.91;;;11.79;100.00
19672;BME280;9983;51.114;13.788;2022-12-24T10:25:33;98910.41;;;11.71;100.00
19672;BME280;9983;51.114;13.788;2022-12-24T10:30:37;98912.25;;;11.98;100.00
19672;BME280;9983;51.114;13.788;2022-12-24T10:35:44;98924.03;;;11.69;100.00
19672;BME280;9983;51.114;13.788;2022-12-24T10:40:49;98929.97;;;11.86;100.00
19672;BME280;9983;51.114;13.788;2022-12-24T10:45:55;98925.22;;;12.70;100.00
19672;BME280;9983;51.114;13.788;2022-12-24T10:51:02;98932.84;;;12.67;100.00
19672;BME280;9983;51.114;13.788;2022-12-24T10:56:05;98933.25;;;12.64;100.00
19672;BME280;9983;51.114;13.788;2022-12-24T11:01:06;98940.94;;;12.26;100.00
19672;BME280;9983;51.114;13.788;2022-12-24T11:11:15;98965.22;;;12.04;100.00
19672;BME280;9983;51.114;13.788;2022-12-24T11:16:28;98957.88;;;12.20;100.00
19672;BME280;9983;51.114;13.788;2022-12-24T11:21:31;98966.78;;;11.92;100.00
19672;BME280;9983;51.114;13.788;2022-12-24T11:26:32;98965.81;;;12.06;100.00
19672;BME280;9983;51.114;13.788;2022-12-24T11:31:33;98980.88;;;11.52;100.00
19672;BME280;9983;51.114;13.788;2022-12-24T11:36:36;98992.75;;;11.85;100.00
19672;BME280;9983;51.114;13.788;2022-12-24T11:41:36;99003.28;;;12.14;100.00
19672;BME280;9983;51.114;13.788;2022-12-24T11:46:39;99009.84;;;12.05;100.00
19672;BME280;9983;51.114;13.788;2022-12-24T11:52:30;99013.44;;;12.12;100.00
19672;BME280;9983;51.114;13.788;2022-12-24T11:57:07;99015.22;;;12.05;100.00
19672;BME280;9983;51.114;13.788;2022-12-24T12:02:22;99017.41;;;12.23;100.00
19672;BME280;9983;51.114;13.788;2022-12-24T12:07:27;99029.41;;;12.21;100.00
19672;BME280;9983;51.114;13.788;2022-12-24T12:12:40;99025.78;;;12.35;100.00
19672;BME280;9983;51.114;13.788;2022-12-24T12:17:55;99018.41;;;12.50;100.00
19672;BME280;9983;51.114;13.788;2022-12-24T12:28:22;99028.22;;;12.30;100.00
19672;BME280;9983;51.114;13.788;2022-12-24T12:33:30;99032.81;;;12.36;100.00
19672;BME280;9983;51.114;13.788;2022-12-24T12:38:31;99024.94;;;11.78;100.00
19672;BME280;9983;51.114;13.788;2022-12-24T12:43:50;99019.66;;;11.92;100.00
19672;BME280;9983;51.114;13.788;2022-12-24T12:49:19;99023.69;;;11.60;100.00
19672;BME280;9983;51.114;13.788;2022-12-24T12:59:37;99035.81;;;11.98;100.00
19672;BME280;9983;51.114;13.788;2022-12-24T13:16:10;99042.59;;;12.50;100.00
19672;BME280;9983;51.114;13.788;2022-12-24T13:21:18;99047.13;;;12.43;100.00
19672;BME280;9983;51.114;13.788;2022-12-24T13:26:19;99031.31;;;12.61;100.00
19672;BME280;9983;51.114;13.788;2022-12-24T13:36:20;99055.25;;;12.56;100.00
19672;BME280;9983;51.114;13.788;2022-12-24T13:47:15;99055.81;;;12.17;100.00
19672;BME280;9983;51.114;13.788;2022-12-24T13:52:22;99062.81;;;12.11;100.00
19672;BME280;9983;51.114;13.788;2022-12-24T13:57:39;99062.91;;;12.25;100.00
19672;BME280;9983;51.114;13.788;2022-12-24T14:08:15;99067.69;;;12.01;100.00
19672;BME280;9983;51.114;13.788;2022-12-24T14:18:40;99081.28;;;12.21;100.00
19672;BME280;9983;51.114;13.788;2022-12-24T14:23:51;99094.38;;;12.31;100.00
19672;BME280;9983;51.114;13.788;2022-12-24T14:29:02;99097.50;;;12.62;100.00
19672;BME280;9983;51.114;13.788;2022-12-24T14:34:12;99094.78;;;12.06;100.00
19672;BME280;9983;51.114;13.788;2022-12-24T14:39:29;99112.47;;;12.71;100.00
19672;BME280;9983;51.114;13.788;2022-12-24T14:50:20;99124.03;;;12.16;100.00
19672;BME280;9983;51.114;13.788;2022-12-24T14:55:30;99120.50;;;12.37;100.00
19672;BME280;9983;51.114;13.788;2022-12-24T15:00:30;99139.81;;;12.26;100.00
19672;BME280;9983;51.114;13.788;2022-12-24T15:05:31;99141.50;;;12.05;100.00
19672;BME280;9983;51.114;13.788;2022-12-24T15:10:39;99149.81;;;11.53;100.00
19672;BME280;9983;51.114;13.788;2022-12-24T15:15:45;99161.22;;;11.40;100.00
19672;BME280;9983;51.114;13.788;2022-12-24T15:20:48;99172.63;;;11.64;100.00
19672;BME280;9983;51.114;13.788;2022-12-24T15:25:50;99171.41;;;11.30;100.00
19672;BME280;9983;51.114;13.788;2022-12-24T15:31:07;99184.75;;;11.09;100.00
19672;BME280;9983;51.114;13.788;2022-12-24T15:36:08;99175.19;;;11.36;100.00
19672;BME280;9983;51.114;13.788;2022-12-24T15:41:20;99177.16;;;11.27;100.00
19672;BME280;9983;51.114;13.788;2022-12-24T15:46:23;99182.41;;;11.35;100.00
19672;BME280;9983;51.114;13.788;2022-12-24T15:51:27;99184.75;;;11.09;100.00
19672;BME280;9983;51.114;13.788;2022-12-24T15:56:38;99207.13;;;11.46;100.00
19672;BME280;9983;51.114;13.788;2022-12-24T16:01:39;99234.88;;;11.23;100.00
19672;BME280;9983;51.114;13.788;2022-12-24T16:06:57;99238.97;;;10.67;100.00
19672;BME280;9983;51.114;13.788;2022-12-24T16:11:58;99246.84;;;10.69;100.00
19672;BME280;9983;51.114;13.788;2022-12-24T16:16:58;99246.34;;;10.88;100.00
19672;BME280;9983;51.114;13.788;2022-12-24T16:22:00;99249.38;;;10.85;100.00
19672;BME280;9983;51.114;13.788;2022-12-24T16:27:24;99261.69;;;10.94;100.00
19672;BME280;9983;51.114;13.788;2022-12-24T16:32:39;99256.53;;;11.07;100.00
19672;BME280;9983;51.114;13.788;2022-12-24T16:37:41;99255.00;;;10.90;100.00
19672;BME280;9983;51.114;13.788;2022-12-24T16:42:41;99271.97;;;10.22;100.00
19672;BME280;9983;51.114;13.788;2022-12-24T16:48:00;99274.72;;;10.59;100.00
19672;BME280;9983;51.114;13.788;2022-12-24T16:53:00;99285.00;;;9.94;100.00
19672;BME280;9983;51.114;13.788;2022-12-24T16:58:01;99286.75;;;10.18;100.00
19672;BME280;9983;51.114;13.788;2022-12-24T17:03:01;99295.22;;;10.52;100.00
19672;BME280;9983;51.114;13.788;2022-12-24T17:08:01;99302.13;;;10.47;100.00
19672;BME280;9983;51.114;13.788;2022-12-24T17:13:01;99297.13;;;10.67;100.00
19672;BME280;9983;51.114;13.788;2022-12-24T17:18:02;99313.81;;;10.77;100.00
19672;BME280;9983;51.114;13.788;2022-12-24T17:23:02;99317.50;;;10.53;100.00
19672;BME280;9983;51.114;13.788;2022-12-24T17:28:02;99312.97;;;9.92;100.00
19672;BME280;9983;51.114;13.788;2022-12-24T17:33:03;99298.22;;;9.96;100.00
19672;BME280;9983;51.114;13.788;2022-12-24T17:38:03;99302.59;;;9.88;100.00
19672;BME280;9983;51.114;13.788;2022-12-24T17:43:03;99310.28;;;9.92;100.00
19672;BME280;9983;51.114;13.788;2022-12-24T17:48:04;99323.56;;;9.13;100.00
19672;BME280;9983;51.114;13.788;2022-12-24T17:53:04;99315.78;;;9.59;100.00
19672;BME280;9983;51.114;13.788;2022-12-24T17:58:04;99320.78;;;9.54;100.00
19672;BME280;9983;51.114;13.788;2022-12-24T18:03:11;99333.25;;;9.23;100.00
19672;BME280;9983;51.114;13.788;2022-12-24T18:08:11;99343.09;;;9.22;100.00
19672;BME280;9983;51.114;13.788;2022-12-24T18:13:12;99350.97;;;9.24;100.00
19672;BME280;9983;51.114;13.788;2022-12-24T18:18:12;99344.13;;;9.13;100.00
19672;BME280;9983;51.114;13.788;2022-12-24T18:23:13;99346.63;;;9.14;100.00
19672;BME280;9983;51.114;13.788;2022-12-24T18:28:13;99359.00;;;8.99;100.00
19672;BME280;9983;51.114;13.788;2022-12-24T18:33:13;99365.34;;;9.06;100.00
19672;BME280;9983;51.114;13.788;2022-12-24T18:38:13;99370.03;;;8.80;100.00
19672;BME280;9983;51.114;13.788;2022-12-24T18:43:13;99361.69;;;8.91;100.00
19672;BME280;9983;51.114;13.788;2022-12-24T18:48:14;99372.38;;;8.67;100.00
19672;BME280;9983;51.114;13.788;2022-12-24T18:53:14;99371.63;;;8.32;100.00
19672;BME280;9983;51.114;13.788;2022-12-24T18:58:14;99375.72;;;8.77;100.00
19672;BME280;9983;51.114;13.788;2022-12-24T19:03:14;99378.97;;;8.38;100.00
19672;BME280;9983;51.114;13.788;2022-12-24T19:08:15;99376.72;;;8.10;100.00
19672;BME280;9983;51.114;13.788;2022-12-24T19:13:15;99380.56;;;8.15;100.00
19672;BME280;9983;51.114;13.788;2022-12-24T19:18:15;99379.75;;;7.81;100.00
19672;BME280;9983;51.114;13.788;2022-12-24T19:23:15;99391.88;;;8.09;100.00
19672;BME280;9983;51.114;13.788;2022-12-24T19:28:15;99398.94;;;8.18;100.00
19672;BME280;9983;51.114;13.788;2022-12-24T19:33:16;99415.88;;;8.01;100.00
19672;BME280;9983;51.114;13.788;2022-12-24T19:38:16;99406.94;;;8.18;100.00
19672;BME280;9983;51.114;13.788;2022-12-24T19:43:16;99428.53;;;7.99;100.00
19672;BME280;9983;51.114;13.788;2022-12-24T19:48:16;99430.66;;;8.29;100.00
19672;BME280;9983;51.114;13.788;2022-12-24T19:53:16;99441.44;;;8.46;100.00
19672;BME280;9983;51.114;13.788;2022-12-24T19:58:17;99437.91;;;8.37;100.00
19672;BME280;9983;51.114;13.788;2022-12-24T20:03:17;99437.16;;;8.53;100.00
19672;BME280;9983;51.114;13.788;2022-12-24T20:08:17;99435.84;;;8.81;100.00
19672;BME280;9983;51.114;13.788;2022-12-24T20:13:17;99439.06;;;9.01;100.00
19672;BME280;9983;51.114;13.788;2022-12-24T20:18:18;99453.25;;;8.85;100.00
19672;BME280;9983;51.114;13.788;2022-12-24T20:23:18;99463.28;;;8.91;100.00
19672;BME280;9983;51.114;13.788;2022-12-24T20:28:18;99474.31;;;9.04;100.00
19672;BME280;9983;51.114;13.788;2022-12-24T20:33:18;99464.97;;;9.08;100.00
19672;BME280;9983;51.114;13.788;2022-12-24T20:38:19;99457.28;;;8.97;100.00
19672;BME280;9983;51.114;13.788;2022-12-24T20:43:19;99474.09;;;8.73;100.00
19672;BME280;9983;51.114;13.788;2022-12-24T20:48:19;99459.22;;;8.79;100.00
19672;BME280;9983;51.114;13.788;2022-12-24T20:53:20;99470.00;;;8.95;100.00
19672;BME280;9983;51.114;13.788;2022-12-24T20:58:20;99463.59;;;8.88;100.00
19672;BME280;9983;51.114;13.788;2022-12-24T21:03:20;99460.25;;;8.70;100.00
19672;BME280;9983;51.114;13.788;2022-12-24T21:08:21;99468.06;;;8.71;100.00
19672;BME280;9983;51.114;13.788;2022-12-24T21:13:21;99471.75;;;8.28;100.00
19672;BME280;9983;51.114;13.788;2022-12-24T21:18:21;99477.81;;;8.38;100.00
19672;BME280;9983;51.114;13.788;2022-12-24T21:23:21;99474.34;;;8.20;100.00
19672;BME280;9983;51.114;13.788;2022-12-24T21:28:21;99482.03;;;8.15;100.00
19672;BME280;9983;51.114;13.788;2022-12-24T21:33:22;99476.41;;;7.92;100.00
19672;BME280;9983;51.114;13.788;2022-12-24T21:38:22;99476.91;;;7.96;100.00
19672;BME280;9983;51.114;13.788;2022-12-24T21:43:22;99487.56;;;7.44;100.00
19672;BME280;9983;51.114;13.788;2022-12-24T21:48:23;99494.25;;;7.48;100.00
19672;BME280;9983;51.114;13.788;2022-12-24T21:53:42;99499.91;;;7.45;100.00
19672;BME280;9983;51.114;13.788;2022-12-24T21:59:11;99504.63;;;7.51;100.00
19672;BME280;9983;51.114;13.788;2022-12-24T22:04:11;99508.66;;;7.55;100.00
19672;BME280;9983;51.114;13.788;2022-12-24T22:09:12;99517.97;;;7.51;100.00
19672;BME280;9983;51.114;13.788;2022-12-24T22:14:31;99513.94;;;7.47;100.00
19672;BME280;9983;51.114;13.788;2022-12-24T22:19:32;99519.59;;;7.44;100.00
19672;BME280;9983;51.114;13.788;2022-12-24T22:24:32;99526.88;;;7.07;100.00
19672;BME280;9983;51.114;13.788;2022-12-24T22:29:32;99542.44;;;7.29;100.00
19672;BME280;9983;51.114;13.788;2022-12-24T22:34:32;99543.81;;;7.33;100.00
19672;BME280;9983;51.114;13.788;2022-12-24T22:39:33;99544.72;;;7.24;100.00
19672;BME280;9983;51.114;13.788;2022-12-24T22:44:33;99549.59;;;7.11;100.00
19672;BME280;9983;51.114;13.788;2022-12-24T22:49:33;99558.25;;;7.13;100.00
19672;BME280;9983;51.114;13.788;2022-12-24T22:54:35;99569.41;;;6.81;100.00
19672;BME280;9983;51.114;13.788;2022-12-24T22:59:36;99567.59;;;6.81;100.00
19672;BME280;9983;51.114;13.788;2022-12-24T23:04:38;99578.19;;;6.64;100.00
19672;BME280;9983;51.114;13.788;2022-12-24T23:09:39;99582.22;;;6.77;100.00
19672;BME280;9983;51.114;13.788;2022-12-24T23:14:39;99595.59;;;6.58;100.00
19672;BME280;9983;51.114;13.788;2022-12-24T23:20:00;99583.47;;;6.73;100.00
19672;BME280;9983;51.114;13.788;2022-12-24T23:25:00;99598.16;;;6.50;100.00
19672;BME280;9983;51.114;13.788;2022-12-24T23:30:00;99592.53;;;6.53;100.00
19672;BME280;9983;51.114;13.788;2022-12-24T23:35:00;99592.06;;;6.21;100.00
19672;BME280;9983;51.114;13.788;2022-12-24T23:40:01;99587.19;;;6.53;100.00
19672;BME280;9983;51.114;13.788;2022-12-24T23:45:02;99597.75;;;6.45;100.00
19672;BME280;9983;51.114;13.788;2022-12-24T23:50:02;99601.03;;;6.66;100.00
19672;BME280;9983;51.114;13.788;2022-12-24T23:55:04;99610.91;;;6.83;100.00
